sensor_id;sensor_type;location;lat;lon;timestamp;P1;durP1;ratioP1;P2;durP2;ratioP2
70543;SDS011;58097;48.364;-1.224;2022-11-21T00:00:47;18.38;;;4.93;;
70543;SDS011;58097;48.364;-1.224;2022-11-21T00:03:13;28.02;;;6.68;;
70543;SDS011;58097;48.364;-1.224;2022-11-21T00:05:40;14.98;;;5.18;;
70543;SDS011;58097;48.364;-1.224;2022-11-21T00:08:06;13.60;;;5.25;;
70543;SDS011;58097;48.364;-1.224;2022-11-21T00:10:32;15.35;;;4.82;;
70543;SDS011;58097;48.364;-1.224;2022-11-21T00:12:59;12.75;;;4.10;;
70543;SDS011;58097;48.364;-1.224;2022-11-21T00:15:25;12.18;;;4.45;;
70543;SDS011;58097;48.364;-1.224;2022-11-21T00:17:51;19.40;;;5.13;;
70543;SDS011;58097;48.364;-1.224;2022-11-21T00:20:17;15.20;;;4.18;;
70543;SDS011;58097;48.364;-1.224;2022-11-21T00:22:44;13.85;;;5.20;;
70543;SDS011;58097;48.364;-1.224;2022-11-21T00:25:10;15.27;;;4.90;;
70543;SDS011;58097;48.364;-1.224;2022-11-21T00:27:36;13.70;;;4.43;;
70543;SDS011;58097;48.364;-1.224;2022-11-21T00:30:01;18.88;;;4.25;;
70543;SDS011;58097;48.364;-1.224;2022-11-21T00:32:28;18.50;;;5.68;;
70543;SDS011;58097;48.364;-1.224;2022-11-21T00:34:53;21.95;;;6.35;;
70543;SDS011;58097;48.364;-1.224;2022-11-21T00:37:18;21.20;;;4.75;;
70543;SDS011;58097;48.364;-1.224;2022-11-21T00:39:43;14.27;;;4.65;;
70543;SDS011;58097;48.364;-1.224;2022-11-21T00:42:09;9.13;;;3.42;;
70543;SDS011;58097;48.364;-1.224;2022-11-21T00:44:34;14.18;;;3.50;;
70543;SDS011;58097;48.364;-1.224;2022-11-21T00:46:59;13.90;;;3.67;;
70543;SDS011;58097;48.364;-1.224;2022-11-21T00:49:25;15.75;;;3.75;;
70543;SDS011;58097;48.364;-1.224;2022-11-21T00:51:50;8.07;;;4.20;;
70543;SDS011;58097;48.364;-1.224;2022-11-21T00:54:15;17.02;;;3.60;;
70543;SDS011;58097;48.364;-1.224;2022-11-21T00:56:41;11.68;;;3.85;;
70543;SDS011;58097;48.364;-1.224;2022-11-21T00:59:06;21.00;;;4.53;;
70543;SDS011;58097;48.364;-1.224;2022-11-21T01:01:32;14.02;;;4.32;;
70543;SDS011;58097;48.364;-1.224;2022-11-21T01:03:57;15.55;;;4.18;;
70543;SDS011;58097;48.364;-1.224;2022-11-21T01:06:23;16.23;;;4.20;;
70543;SDS011;58097;48.364;-1.224;2022-11-21T01:08:48;15.05;;;3.85;;
70543;SDS011;58097;48.364;-1.224;2022-11-21T01:11:15;21.02;;;4.47;;
70543;SDS011;58097;48.364;-1.224;2022-11-21T01:13:42;10.07;;;3.25;;
70543;SDS011;58097;48.364;-1.224;2022-11-21T01:16:09;10.80;;;3.97;;
70543;SDS011;58097;48.364;-1.224;2022-11-21T01:18:36;13.43;;;3.83;;
70543;SDS011;58097;48.364;-1.224;2022-11-21T01:21:06;18.13;;;4.90;;
70543;SDS011;58097;48.364;-1.224;2022-11-21T01:23:37;13.85;;;3.83;;
70543;SDS011;58097;48.364;-1.224;2022-11-21T01:26:03;12.23;;;3.65;;
70543;SDS011;58097;48.364;-1.224;2022-11-21T01:28:30;16.92;;;3.47;;
70543;SDS011;58097;48.364;-1.224;2022-11-21T01:31:01;15.57;;;3.55;;
70543;SDS011;58097;48.364;-1.224;2022-11-21T01:33:30;17.33;;;4.18;;
70543;SDS011;58097;48.364;-1.224;2022-11-21T01:35:55;15.65;;;4.85;;
70543;SDS011;58097;48.364;-1.224;2022-11-21T01:38:21;15.43;;;3.95;;
70543;SDS011;58097;48.364;-1.224;2022-11-21T01:40:46;20.83;;;4.13;;
70543;SDS011;58097;48.364;-1.224;2022-11-21T01:43:13;14.95;;;3.42;;
70543;SDS011;58097;48.364;-1.224;2022-11-21T01:45:52;12.63;;;3.40;;
70543;SDS011;58097;48.364;-1.224;2022-11-21T01:48:21;17.13;;;4.18;;
70543;SDS011;58097;48.364;-1.224;2022-11-21T01:50:54;9.98;;;3.20;;
70543;SDS011;58097;48.364;-1.224;2022-11-21T01:53:23;6.40;;;3.05;;
70543;SDS011;58097;48.364;-1.224;2022-11-21T01:55:49;11.55;;;3.05;;
70543;SDS011;58097;48.364;-1.224;2022-11-21T01:58:15;12.40;;;2.80;;
70543;SDS011;58097;48.364;-1.224;2022-11-21T02:00:41;9.80;;;3.38;;
70543;SDS011;58097;48.364;-1.224;2022-11-21T02:03:11;8.57;;;2.83;;
70543;SDS011;58097;48.364;-1.224;2022-11-21T02:05:42;7.20;;;2.90;;
70543;SDS011;58097;48.364;-1.224;2022-11-21T02:08:09;9.75;;;2.72;;
70543;SDS011;58097;48.364;-1.224;2022-11-21T02:10:46;8.15;;;3.08;;
70543;SDS011;58097;48.364;-1.224;2022-11-21T02:13:19;8.82;;;2.78;;
70543;SDS011;58097;48.364;-1.224;2022-11-21T02:15:46;12.35;;;3.15;;
70543;SDS011;58097;48.364;-1.224;2022-11-21T02:18:12;7.28;;;2.67;;
70543;SDS011;58097;48.364;-1.224;2022-11-21T02:20:37;18.13;;;3.78;;
70543;SDS011;58097;48.364;-1.224;2022-11-21T02:23:21;14.85;;;3.55;;
70543;SDS011;58097;48.364;-1.224;2022-11-21T02:25:53;11.68;;;3.63;;
70543;SDS011;58097;48.364;-1.224;2022-11-21T02:28:20;17.30;;;3.30;;
70543;SDS011;58097;48.364;-1.224;2022-11-21T02:30:48;11.45;;;3.67;;
70543;SDS011;58097;48.364;-1.224;2022-11-21T02:33:13;19.17;;;3.17;;
70543;SDS011;58097;48.364;-1.224;2022-11-21T02:35:38;13.15;;;3.85;;
70543;SDS011;58097;48.364;-1.224;2022-11-21T02:38:16;21.75;;;3.72;;
70543;SDS011;58097;48.364;-1.224;2022-11-21T02:43:24;10.02;;;2.58;;
70543;SDS011;58097;48.364;-1.224;2022-11-21T02:45:55;6.47;;;2.55;;
70543;SDS011;58097;48.364;-1.224;2022-11-21T02:48:20;10.52;;;2.83;;
70543;SDS011;58097;48.364;-1.224;2022-11-21T02:50:46;10.85;;;3.67;;
70543;SDS011;58097;48.364;-1.224;2022-11-21T02:53:13;16.02;;;3.30;;
70543;SDS011;58097;48.364;-1.224;2022-11-21T02:55:40;10.07;;;2.58;;
70543;SDS011;58097;48.364;-1.224;2022-11-21T02:58:06;10.13;;;2.63;;
70543;SDS011;58097;48.364;-1.224;2022-11-21T03:00:32;7.47;;;3.17;;
70543;SDS011;58097;48.364;-1.224;2022-11-21T03:02:59;13.43;;;2.42;;
70543;SDS011;58097;48.364;-1.224;2022-11-21T03:05:24;7.95;;;2.47;;
70543;SDS011;58097;48.364;-1.224;2022-11-21T03:07:50;8.48;;;2.53;;
70543;SDS011;58097;48.364;-1.224;2022-11-21T03:10:15;7.75;;;2.35;;
70543;SDS011;58097;48.364;-1.224;2022-11-21T03:12:41;10.90;;;2.67;;
70543;SDS011;58097;48.364;-1.224;2022-11-21T03:15:08;10.43;;;2.83;;
70543;SDS011;58097;48.364;-1.224;2022-11-21T03:17:35;15.98;;;2.88;;
70543;SDS011;58097;48.364;-1.224;2022-11-21T03:20:01;14.75;;;3.47;;
70543;SDS011;58097;48.364;-1.224;2022-11-21T03:22:27;16.88;;;2.45;;
70543;SDS011;58097;48.364;-1.224;2022-11-21T03:24:52;16.33;;;3.08;;
70543;SDS011;58097;48.364;-1.224;2022-11-21T03:27:17;15.73;;;3.60;;
70543;SDS011;58097;48.364;-1.224;2022-11-21T03:29:43;16.33;;;3.35;;
70543;SDS011;58097;48.364;-1.224;2022-11-21T03:32:08;15.20;;;3.38;;
70543;SDS011;58097;48.364;-1.224;2022-11-21T03:34:33;14.18;;;4.13;;
70543;SDS011;58097;48.364;-1.224;2022-11-21T03:36:59;15.38;;;3.92;;
70543;SDS011;58097;48.364;-1.224;2022-11-21T03:39:24;16.98;;;3.20;;
70543;SDS011;58097;48.364;-1.224;2022-11-21T03:41:49;11.68;;;3.33;;
70543;SDS011;58097;48.364;-1.224;2022-11-21T03:44:15;17.00;;;3.13;;
70543;SDS011;58097;48.364;-1.224;2022-11-21T03:46:41;15.23;;;2.90;;
70543;SDS011;58097;48.364;-1.224;2022-11-21T03:49:09;12.57;;;4.20;;
70543;SDS011;58097;48.364;-1.224;2022-11-21T03:51:35;19.90;;;4.07;;
70543;SDS011;58097;48.364;-1.224;2022-11-21T03:54:01;18.83;;;3.63;;
70543;SDS011;58097;48.364;-1.224;2022-11-21T03:56:27;17.02;;;3.75;;
70543;SDS011;58097;48.364;-1.224;2022-11-21T03:58:53;13.40;;;3.13;;
70543;SDS011;58097;48.364;-1.224;2022-11-21T04:01:19;10.38;;;3.50;;
70543;SDS011;58097;48.364;-1.224;2022-11-21T04:03:45;15.85;;;4.13;;
70543;SDS011;58097;48.364;-1.224;2022-11-21T04:06:11;14.77;;;2.72;;
70543;SDS011;58097;48.364;-1.224;2022-11-21T04:08:38;12.45;;;3.10;;
70543;SDS011;58097;48.364;-1.224;2022-11-21T04:11:04;11.45;;;2.70;;
70543;SDS011;58097;48.364;-1.224;2022-11-21T04:13:29;11.48;;;3.10;;
70543;SDS011;58097;48.364;-1.224;2022-11-21T04:15:55;7.32;;;2.88;;
70543;SDS011;58097;48.364;-1.224;2022-11-21T04:18:20;11.52;;;2.90;;
70543;SDS011;58097;48.364;-1.224;2022-11-21T04:20:46;14.15;;;2.45;;
70543;SDS011;58097;48.364;-1.224;2022-11-21T04:23:11;9.73;;;3.22;;
70543;SDS011;58097;48.364;-1.224;2022-11-21T04:25:37;22.42;;;4.63;;
70543;SDS011;58097;48.364;-1.224;2022-11-21T04:28:03;12.75;;;4.05;;
70543;SDS011;58097;48.364;-1.224;2022-11-21T04:30:29;17.38;;;2.63;;
70543;SDS011;58097;48.364;-1.224;2022-11-21T04:32:56;10.15;;;2.83;;
70543;SDS011;58097;48.364;-1.224;2022-11-21T04:35:22;21.40;;;4.18;;
70543;SDS011;58097;48.364;-1.224;2022-11-21T04:37:48;30.30;;;4.78;;
70543;SDS011;58097;48.364;-1.224;2022-11-21T04:40:14;21.67;;;4.18;;
70543;SDS011;58097;48.364;-1.224;2022-11-21T04:42:40;16.13;;;4.43;;
70543;SDS011;58097;48.364;-1.224;2022-11-21T04:45:10;12.90;;;3.22;;
70543;SDS011;58097;48.364;-1.224;2022-11-21T04:47:36;14.45;;;2.60;;
70543;SDS011;58097;48.364;-1.224;2022-11-21T04:50:02;15.70;;;3.80;;
70543;SDS011;58097;48.364;-1.224;2022-11-21T04:52:28;20.58;;;3.30;;
70543;SDS011;58097;48.364;-1.224;2022-11-21T04:54:53;19.08;;;3.92;;
70543;SDS011;58097;48.364;-1.224;2022-11-21T04:57:19;18.98;;;4.18;;
70543;SDS011;58097;48.364;-1.224;2022-11-21T04:59:44;13.90;;;3.70;;
70543;SDS011;58097;48.364;-1.224;2022-11-21T05:02:09;19.25;;;4.00;;
70543;SDS011;58097;48.364;-1.224;2022-11-21T05:04:35;14.65;;;3.25;;
70543;SDS011;58097;48.364;-1.224;2022-11-21T05:07:00;18.60;;;3.85;;
70543;SDS011;58097;48.364;-1.224;2022-11-21T05:09:25;14.18;;;3.55;;
70543;SDS011;58097;48.364;-1.224;2022-11-21T05:11:51;13.75;;;3.95;;
70543;SDS011;58097;48.364;-1.224;2022-11-21T05:14:34;13.98;;;4.05;;
70543;SDS011;58097;48.364;-1.224;2022-11-21T05:17:00;12.95;;;3.15;;
70543;SDS011;58097;48.364;-1.224;2022-11-21T05:19:25;14.25;;;3.92;;
70543;SDS011;58097;48.364;-1.224;2022-11-21T05:21:50;17.85;;;3.97;;
70543;SDS011;58097;48.364;-1.224;2022-11-21T05:24:16;21.92;;;3.85;;
70543;SDS011;58097;48.364;-1.224;2022-11-21T05:26:41;11.73;;;3.20;;
70543;SDS011;58097;48.364;-1.224;2022-11-21T05:29:06;16.23;;;3.63;;
70543;SDS011;58097;48.364;-1.224;2022-11-21T05:31:32;26.67;;;3.47;;
70543;SDS011;58097;48.364;-1.224;2022-11-21T05:33:57;19.17;;;3.58;;
70543;SDS011;58097;48.364;-1.224;2022-11-21T05:36:22;20.30;;;4.93;;
70543;SDS011;58097;48.364;-1.224;2022-11-21T05:38:48;21.02;;;4.18;;
70543;SDS011;58097;48.364;-1.224;2022-11-21T05:41:13;24.40;;;4.05;;
70543;SDS011;58097;48.364;-1.224;2022-11-21T05:43:38;19.33;;;3.38;;
70543;SDS011;58097;48.364;-1.224;2022-11-21T05:46:10;11.20;;;2.90;;
70543;SDS011;58097;48.364;-1.224;2022-11-21T05:48:40;14.73;;;2.72;;
70543;SDS011;58097;48.364;-1.224;2022-11-21T05:51:05;21.65;;;4.07;;
70543;SDS011;58097;48.364;-1.224;2022-11-21T05:53:32;14.55;;;3.60;;
70543;SDS011;58097;48.364;-1.224;2022-11-21T05:56:02;17.90;;;3.05;;
70543;SDS011;58097;48.364;-1.224;2022-11-21T05:58:27;23.23;;;3.05;;
70543;SDS011;58097;48.364;-1.224;2022-11-21T06:00:56;17.27;;;4.05;;
70543;SDS011;58097;48.364;-1.224;2022-11-21T06:03:22;15.30;;;3.20;;
70543;SDS011;58097;48.364;-1.224;2022-11-21T06:08:23;15.73;;;3.42;;
70543;SDS011;58097;48.364;-1.224;2022-11-21T06:10:48;14.77;;;3.45;;
70543;SDS011;58097;48.364;-1.224;2022-11-21T06:13:13;28.08;;;3.90;;
70543;SDS011;58097;48.364;-1.224;2022-11-21T06:18:13;15.10;;;3.85;;
70543;SDS011;58097;48.364;-1.224;2022-11-21T06:20:38;17.90;;;2.70;;
70543;SDS011;58097;48.364;-1.224;2022-11-21T06:23:03;14.98;;;2.95;;
70543;SDS011;58097;48.364;-1.224;2022-11-21T06:25:29;12.40;;;2.75;;
70543;SDS011;58097;48.364;-1.224;2022-11-21T06:27:54;16.52;;;3.30;;
70543;SDS011;58097;48.364;-1.224;2022-11-21T06:30:19;22.75;;;3.50;;
70543;SDS011;58097;48.364;-1.224;2022-11-21T06:32:45;12.57;;;2.35;;
70543;SDS011;58097;48.364;-1.224;2022-11-21T06:35:10;16.52;;;3.85;;
70543;SDS011;58097;48.364;-1.224;2022-11-21T06:37:35;20.80;;;2.65;;
70543;SDS011;58097;48.364;-1.224;2022-11-21T06:40:01;8.50;;;3.03;;
70543;SDS011;58097;48.364;-1.224;2022-11-21T06:42:26;21.25;;;2.75;;
70543;SDS011;58097;48.364;-1.224;2022-11-21T06:44:51;21.90;;;3.50;;
70543;SDS011;58097;48.364;-1.224;2022-11-21T06:47:17;23.63;;;3.70;;
70543;SDS011;58097;48.364;-1.224;2022-11-21T06:49:42;21.55;;;5.25;;
70543;SDS011;58097;48.364;-1.224;2022-11-21T06:52:08;14.50;;;3.45;;
70543;SDS011;58097;48.364;-1.224;2022-11-21T06:54:33;18.25;;;3.47;;
70543;SDS011;58097;48.364;-1.224;2022-11-21T06:56:58;20.17;;;3.83;;
70543;SDS011;58097;48.364;-1.224;2022-11-21T06:59:24;23.08;;;4.13;;
70543;SDS011;58097;48.364;-1.224;2022-11-21T07:01:49;12.48;;;3.22;;
70543;SDS011;58097;48.364;-1.224;2022-11-21T07:04:14;15.40;;;3.38;;
70543;SDS011;58097;48.364;-1.224;2022-11-21T07:06:40;10.57;;;3.42;;
70543;SDS011;58097;48.364;-1.224;2022-11-21T07:09:05;17.75;;;3.83;;
70543;SDS011;58097;48.364;-1.224;2022-11-21T07:11:30;19.05;;;3.38;;
70543;SDS011;58097;48.364;-1.224;2022-11-21T07:13:56;10.00;;;2.70;;
70543;SDS011;58097;48.364;-1.224;2022-11-21T07:16:21;18.40;;;3.28;;
70543;SDS011;58097;48.364;-1.224;2022-11-21T07:18:49;17.95;;;3.63;;
70543;SDS011;58097;48.364;-1.224;2022-11-21T07:21:15;18.08;;;3.13;;
70543;SDS011;58097;48.364;-1.224;2022-11-21T07:23:40;18.35;;;3.40;;
70543;SDS011;58097;48.364;-1.224;2022-11-21T07:26:06;24.65;;;3.75;;
70543;SDS011;58097;48.364;-1.224;2022-11-21T07:28:33;15.57;;;3.20;;
70543;SDS011;58097;48.364;-1.224;2022-11-21T07:30:59;13.93;;;2.60;;
70543;SDS011;58097;48.364;-1.224;2022-11-21T07:33:25;13.02;;;3.22;;
70543;SDS011;58097;48.364;-1.224;2022-11-21T07:35:51;15.07;;;3.00;;
70543;SDS011;58097;48.364;-1.224;2022-11-21T07:38:19;16.50;;;3.22;;
70543;SDS011;58097;48.364;-1.224;2022-11-21T07:40:44;17.80;;;2.88;;
70543;SDS011;58097;48.364;-1.224;2022-11-21T07:43:10;10.00;;;2.47;;
70543;SDS011;58097;48.364;-1.224;2022-11-21T07:45:35;18.92;;;3.30;;
70543;SDS011;58097;48.364;-1.224;2022-11-21T07:48:01;24.13;;;2.58;;
70543;SDS011;58097;48.364;-1.224;2022-11-21T07:50:29;16.38;;;3.35;;
70543;SDS011;58097;48.364;-1.224;2022-11-21T07:52:58;20.95;;;3.53;;
70543;SDS011;58097;48.364;-1.224;2022-11-21T07:55:24;18.00;;;2.60;;
70543;SDS011;58097;48.364;-1.224;2022-11-21T07:58:04;18.13;;;3.63;;
70543;SDS011;58097;48.364;-1.224;2022-11-21T08:00:35;12.43;;;3.25;;
70543;SDS011;58097;48.364;-1.224;2022-11-21T08:03:04;18.38;;;3.60;;
70543;SDS011;58097;48.364;-1.224;2022-11-21T08:05:34;23.38;;;2.88;;
70543;SDS011;58097;48.364;-1.224;2022-11-21T08:08:00;16.42;;;2.75;;
70543;SDS011;58097;48.364;-1.224;2022-11-21T08:10:26;13.75;;;3.33;;
70543;SDS011;58097;48.364;-1.224;2022-11-21T08:12:51;20.27;;;3.40;;
70543;SDS011;58097;48.364;-1.224;2022-11-21T08:15:16;28.85;;;3.35;;
70543;SDS011;58097;48.364;-1.224;2022-11-21T08:17:42;19.73;;;3.72;;
70543;SDS011;58097;48.364;-1.224;2022-11-21T08:20:08;20.77;;;2.95;;
70543;SDS011;58097;48.364;-1.224;2022-11-21T08:22:40;21.45;;;3.40;;
70543;SDS011;58097;48.364;-1.224;2022-11-21T08:27:32;16.25;;;2.97;;
70543;SDS011;58097;48.364;-1.224;2022-11-21T08:29:57;16.70;;;2.75;;
70543;SDS011;58097;48.364;-1.224;2022-11-21T08:32:22;19.63;;;3.20;;
70543;SDS011;58097;48.364;-1.224;2022-11-21T08:34:48;12.75;;;2.88;;
70543;SDS011;58097;48.364;-1.224;2022-11-21T08:37:13;15.60;;;3.33;;
70543;SDS011;58097;48.364;-1.224;2022-11-21T08:39:38;15.85;;;4.30;;
70543;SDS011;58097;48.364;-1.224;2022-11-21T08:42:04;10.70;;;3.17;;
70543;SDS011;58097;48.364;-1.224;2022-11-21T08:44:32;25.35;;;3.92;;
70543;SDS011;58097;48.364;-1.224;2022-11-21T08:46:59;7.43;;;2.50;;
70543;SDS011;58097;48.364;-1.224;2022-11-21T08:49:25;17.80;;;2.78;;
70543;SDS011;58097;48.364;-1.224;2022-11-21T08:51:51;13.32;;;3.33;;
70543;SDS011;58097;48.364;-1.224;2022-11-21T08:54:17;15.80;;;3.05;;
70543;SDS011;58097;48.364;-1.224;2022-11-21T08:56:44;14.82;;;2.80;;
70543;SDS011;58097;48.364;-1.224;2022-11-21T08:59:10;26.40;;;5.35;;
70543;SDS011;58097;48.364;-1.224;2022-11-21T09:01:35;21.13;;;3.63;;
70543;SDS011;58097;48.364;-1.224;2022-11-21T09:04:01;16.08;;;3.72;;
70543;SDS011;58097;48.364;-1.224;2022-11-21T09:06:26;29.48;;;3.63;;
70543;SDS011;58097;48.364;-1.224;2022-11-21T09:08:52;18.02;;;2.53;;
70543;SDS011;58097;48.364;-1.224;2022-11-21T09:11:17;20.55;;;3.85;;
70543;SDS011;58097;48.364;-1.224;2022-11-21T09:13:43;14.82;;;3.30;;
70543;SDS011;58097;48.364;-1.224;2022-11-21T09:16:28;11.80;;;2.33;;
70543;SDS011;58097;48.364;-1.224;2022-11-21T09:19:12;16.80;;;2.78;;
70543;SDS011;58097;48.364;-1.224;2022-11-21T09:21:37;20.40;;;3.70;;
70543;SDS011;58097;48.364;-1.224;2022-11-21T09:24:03;21.42;;;3.63;;
70543;SDS011;58097;48.364;-1.224;2022-11-21T09:26:28;11.18;;;2.45;;
70543;SDS011;58097;48.364;-1.224;2022-11-21T09:28:54;13.50;;;3.13;;
70543;SDS011;58097;48.364;-1.224;2022-11-21T09:31:21;9.88;;;2.58;;
70543;SDS011;58097;48.364;-1.224;2022-11-21T09:33:46;14.27;;;3.20;;
70543;SDS011;58097;48.364;-1.224;2022-11-21T09:36:12;15.10;;;2.22;;
70543;SDS011;58097;48.364;-1.224;2022-11-21T09:38:37;4.18;;;1.77;;
70543;SDS011;58097;48.364;-1.224;2022-11-21T09:41:08;8.20;;;1.75;;
70543;SDS011;58097;48.364;-1.224;2022-11-21T09:47:28;7.88;;;2.30;;
70543;SDS011;58097;48.364;-1.224;2022-11-21T09:50:00;5.20;;;2.10;;
70543;SDS011;58097;48.364;-1.224;2022-11-21T09:55:17;11.60;;;3.00;;
70543;SDS011;58097;48.364;-1.224;2022-11-21T09:57:50;5.95;;;2.35;;
70543;SDS011;58097;48.364;-1.224;2022-11-21T10:00:19;8.75;;;2.30;;
70543;SDS011;58097;48.364;-1.224;2022-11-21T10:02:49;6.38;;;1.75;;
70543;SDS011;58097;48.364;-1.224;2022-11-21T10:05:16;8.00;;;1.80;;
70543;SDS011;58097;48.364;-1.224;2022-11-21T10:07:49;5.38;;;1.77;;
70543;SDS011;58097;48.364;-1.224;2022-11-21T10:10:22;7.60;;;2.20;;
70543;SDS011;58097;48.364;-1.224;2022-11-21T10:29:10;1.98;;;1.70;;
70543;SDS011;58097;48.364;-1.224;2022-11-21T10:31:39;4.95;;;1.70;;
70543;SDS011;58097;48.364;-1.224;2022-11-21T10:34:14;4.70;;;1.77;;
70543;SDS011;58097;48.364;-1.224;2022-11-21T10:36:43;4.95;;;1.35;;
70543;SDS011;58097;48.364;-1.224;2022-11-21T10:39:19;4.70;;;1.20;;
70543;SDS011;58097;48.364;-1.224;2022-11-21T10:41:59;4.35;;;1.70;;
70543;SDS011;58097;48.364;-1.224;2022-11-21T10:44:29;5.22;;;1.85;;
70543;SDS011;58097;48.364;-1.224;2022-11-21T10:52:35;2.28;;;1.40;;
70543;SDS011;58097;48.364;-1.224;2022-11-21T10:55:10;3.08;;;1.20;;
70543;SDS011;58097;48.364;-1.224;2022-11-21T10:57:42;5.25;;;1.55;;
70543;SDS011;58097;48.364;-1.224;2022-11-21T11:02:36;1.80;;;1.00;;
70543;SDS011;58097;48.364;-1.224;2022-11-21T11:07:40;5.05;;;1.38;;
70543;SDS011;58097;48.364;-1.224;2022-11-21T11:10:27;1.90;;;1.23;;
70543;SDS011;58097;48.364;-1.224;2022-11-21T11:12:52;1.88;;;1.23;;
70543;SDS011;58097;48.364;-1.224;2022-11-21T11:15:37;1.65;;;0.85;;
70543;SDS011;58097;48.364;-1.224;2022-11-21T11:18:18;2.53;;;1.17;;
70543;SDS011;58097;48.364;-1.224;2022-11-21T11:20:46;2.75;;;1.80;;
70543;SDS011;58097;48.364;-1.224;2022-11-21T11:23:15;4.57;;;1.70;;
70543;SDS011;58097;48.364;-1.224;2022-11-21T11:25:53;1.55;;;1.08;;
70543;SDS011;58097;48.364;-1.224;2022-11-21T11:28:23;2.78;;;1.00;;
70543;SDS011;58097;48.364;-1.224;2022-11-21T11:30:49;1.90;;;0.90;;
70543;SDS011;58097;48.364;-1.224;2022-11-21T11:33:36;2.13;;;1.15;;
70543;SDS011;58097;48.364;-1.224;2022-11-21T11:38:59;1.10;;;1.00;;
70543;SDS011;58097;48.364;-1.224;2022-11-21T11:47:55;3.05;;;0.88;;
70543;SDS011;58097;48.364;-1.224;2022-11-21T11:53:10;3.15;;;1.00;;
70543;SDS011;58097;48.364;-1.224;2022-11-21T11:55:45;3.08;;;2.05;;
70543;SDS011;58097;48.364;-1.224;2022-11-21T11:58:25;4.78;;;2.00;;
70543;SDS011;58097;48.364;-1.224;2022-11-21T12:00:54;6.95;;;1.67;;
70543;SDS011;58097;48.364;-1.224;2022-11-21T12:06:23;10.32;;;2.75;;
70543;SDS011;58097;48.364;-1.224;2022-11-21T12:08:54;5.60;;;2.10;;
70543;SDS011;58097;48.364;-1.224;2022-11-21T12:11:40;7.75;;;2.17;;
70543;SDS011;58097;48.364;-1.224;2022-11-21T12:17:24;21.88;;;3.28;;
70543;SDS011;58097;48.364;-1.224;2022-11-21T12:19:56;14.93;;;2.30;;
70543;SDS011;58097;48.364;-1.224;2022-11-21T12:22:23;12.43;;;2.50;;
70543;SDS011;58097;48.364;-1.224;2022-11-21T12:24:48;24.90;;;3.60;;
70543;SDS011;58097;48.364;-1.224;2022-11-21T12:44:30;21.33;;;4.47;;
70543;SDS011;58097;48.364;-1.224;2022-11-21T12:50:26;32.42;;;4.18;;
70543;SDS011;58097;48.364;-1.224;2022-11-21T12:53:49;16.83;;;3.00;;
70543;SDS011;58097;48.364;-1.224;2022-11-21T12:59:16;19.92;;;2.67;;
70543;SDS011;58097;48.364;-1.224;2022-11-21T13:01:59;16.38;;;2.75;;
70543;SDS011;58097;48.364;-1.224;2022-11-21T13:04:40;17.42;;;3.05;;
70543;SDS011;58097;48.364;-1.224;2022-11-21T13:07:07;18.27;;;4.47;;
70543;SDS011;58097;48.364;-1.224;2022-11-21T13:09:36;24.00;;;4.35;;
70543;SDS011;58097;48.364;-1.224;2022-11-21T13:14:46;9.90;;;2.17;;
70543;SDS011;58097;48.364;-1.224;2022-11-21T13:19:56;18.10;;;3.47;;
70543;SDS011;58097;48.364;-1.224;2022-11-21T13:25:03;8.10;;;1.48;;
70543;SDS011;58097;48.364;-1.224;2022-11-21T13:27:39;4.63;;;1.38;;
70543;SDS011;58097;48.364;-1.224;2022-11-21T13:45:45;5.70;;;1.55;;
70543;SDS011;58097;48.364;-1.224;2022-11-21T14:07:40;9.32;;;3.70;;
70543;SDS011;58097;48.364;-1.224;2022-11-21T14:12:49;13.70;;;4.22;;
70543;SDS011;58097;48.364;-1.224;2022-11-21T14:15:21;18.20;;;4.15;;
70543;SDS011;58097;48.364;-1.224;2022-11-21T14:17:55;14.77;;;5.13;;
70543;SDS011;58097;48.364;-1.224;2022-11-21T14:20:26;14.50;;;6.30;;
70543;SDS011;58097;48.364;-1.224;2022-11-21T14:23:20;14.70;;;3.90;;
70543;SDS011;58097;48.364;-1.224;2022-11-21T14:25:47;10.02;;;2.90;;
70543;SDS011;58097;48.364;-1.224;2022-11-21T14:28:47;19.88;;;3.72;;
70543;SDS011;58097;48.364;-1.224;2022-11-21T14:31:07;13.43;;;4.80;;
70543;SDS011;58097;48.364;-1.224;2022-11-21T14:33:34;14.18;;;4.50;;
70543;SDS011;58097;48.364;-1.224;2022-11-21T14:36:08;17.60;;;4.97;;
70543;SDS011;58097;48.364;-1.224;2022-11-21T14:38:48;14.77;;;4.90;;
70543;SDS011;58097;48.364;-1.224;2022-11-21T14:43:48;21.63;;;4.85;;
70543;SDS011;58097;48.364;-1.224;2022-11-21T14:46:14;11.98;;;4.45;;
70543;SDS011;58097;48.364;-1.224;2022-11-21T14:48:40;17.05;;;3.65;;
70543;SDS011;58097;48.364;-1.224;2022-11-21T14:51:10;21.75;;;4.28;;
70543;SDS011;58097;48.364;-1.224;2022-11-21T14:53:40;9.70;;;2.22;;
70543;SDS011;58097;48.364;-1.224;2022-11-21T14:58:45;17.00;;;3.25;;
70543;SDS011;58097;48.364;-1.224;2022-11-21T15:01:20;7.53;;;2.53;;
70543;SDS011;58097;48.364;-1.224;2022-11-21T15:04:01;12.00;;;2.72;;
70543;SDS011;58097;48.364;-1.224;2022-11-21T15:06:28;7.82;;;2.45;;
70543;SDS011;58097;48.364;-1.224;2022-11-21T15:08:57;12.73;;;2.30;;
70543;SDS011;58097;48.364;-1.224;2022-11-21T15:11:47;11.65;;;2.17;;
70543;SDS011;58097;48.364;-1.224;2022-11-21T15:14:20;10.98;;;3.05;;
70543;SDS011;58097;48.364;-1.224;2022-11-21T15:16:47;22.02;;;3.38;;
70543;SDS011;58097;48.364;-1.224;2022-11-21T15:19:25;12.02;;;2.15;;
70543;SDS011;58097;48.364;-1.224;2022-11-21T15:21:53;9.38;;;2.35;;
70543;SDS011;58097;48.364;-1.224;2022-11-21T15:24:37;6.25;;;1.98;;
70543;SDS011;58097;48.364;-1.224;2022-11-21T15:32:33;6.80;;;2.35;;
70543;SDS011;58097;48.364;-1.224;2022-11-21T15:38:12;8.65;;;2.33;;
70543;SDS011;58097;48.364;-1.224;2022-11-21T15:40:38;7.97;;;2.00;;
70543;SDS011;58097;48.364;-1.224;2022-11-21T15:43:06;8.23;;;2.10;;
70543;SDS011;58097;48.364;-1.224;2022-11-21T15:45:33;3.85;;;1.80;;
70543;SDS011;58097;48.364;-1.224;2022-11-21T15:47:58;6.35;;;1.33;;
70543;SDS011;58097;48.364;-1.224;2022-11-21T15:50:24;11.80;;;1.88;;
70543;SDS011;58097;48.364;-1.224;2022-11-21T15:52:50;7.05;;;1.90;;
70543;SDS011;58097;48.364;-1.224;2022-11-21T15:55:25;10.98;;;2.28;;
70543;SDS011;58097;48.364;-1.224;2022-11-21T15:57:55;5.70;;;1.85;;
70543;SDS011;58097;48.364;-1.224;2022-11-21T16:00:20;7.45;;;1.42;;
70543;SDS011;58097;48.364;-1.224;2022-11-21T16:02:46;5.60;;;1.52;;
70543;SDS011;58097;48.364;-1.224;2022-11-21T16:05:12;9.32;;;1.50;;
70543;SDS011;58097;48.364;-1.224;2022-11-21T16:07:38;5.57;;;1.30;;
70543;SDS011;58097;48.364;-1.224;2022-11-21T16:10:04;4.10;;;1.02;;
70543;SDS011;58097;48.364;-1.224;2022-11-21T16:12:30;9.65;;;2.00;;
70543;SDS011;58097;48.364;-1.224;2022-11-21T16:14:55;6.82;;;1.23;;
70543;SDS011;58097;48.364;-1.224;2022-11-21T16:17:20;1.95;;;1.20;;
70543;SDS011;58097;48.364;-1.224;2022-11-21T16:19:46;9.23;;;1.73;;
70543;SDS011;58097;48.364;-1.224;2022-11-21T16:22:11;5.15;;;1.65;;
70543;SDS011;58097;48.364;-1.224;2022-11-21T16:24:36;8.27;;;1.77;;
70543;SDS011;58097;48.364;-1.224;2022-11-21T16:27:02;1.48;;;0.85;;
70543;SDS011;58097;48.364;-1.224;2022-11-21T16:29:27;5.15;;;1.08;;
70543;SDS011;58097;48.364;-1.224;2022-11-21T16:31:53;5.43;;;1.25;;
70543;SDS011;58097;48.364;-1.224;2022-11-21T16:34:19;4.75;;;1.85;;
70543;SDS011;58097;48.364;-1.224;2022-11-21T16:36:46;4.57;;;2.10;;
70543;SDS011;58097;48.364;-1.224;2022-11-21T16:39:12;4.22;;;1.70;;
70543;SDS011;58097;48.364;-1.224;2022-11-21T16:41:37;10.32;;;1.67;;
70543;SDS011;58097;48.364;-1.224;2022-11-21T16:44:05;9.38;;;3.22;;
70543;SDS011;58097;48.364;-1.224;2022-11-21T16:46:37;8.65;;;2.55;;
70543;SDS011;58097;48.364;-1.224;2022-11-21T16:49:06;8.35;;;2.35;;
70543;SDS011;58097;48.364;-1.224;2022-11-21T16:51:32;8.95;;;2.47;;
70543;SDS011;58097;48.364;-1.224;2022-11-21T16:53:58;19.65;;;4.97;;
70543;SDS011;58097;48.364;-1.224;2022-11-21T16:56:23;5.32;;;1.83;;